Time;durP1;ratioP1;P1;durP2;ratioP2;P2;SDS_P1;SDS_P2;PMS_P1;PMS_P2;Temp;Humidity;BMP_temperature;BMP_pressure;BME280_temperature;BME280_humidity;BME280_pressure;Samples;Min_cycle;Max_cycle;Signal;HPM_P1;HPM_P2
2021/09/14 00:00:14;;;;;;;11.48;6.80;;;14.70;98.00;;;;;;5092086;28;20024;-68
2021/09/14 00:02:40;;;;;;;10.15;6.78;;;14.90;98.00;;;;;;5079156;28;20024;-68
2021/09/14 00:05:06;;;;;;;13.15;7.30;;;15.00;98.00;;;;;;5091553;28;20104;-70
2021/09/14 00:07:32;;;;;;;11.93;7.40;;;15.10;98.00;;;;;;5091268;28;20048;-69
2021/09/14 00:09:57;;;;;;;10.57;6.68;;;15.10;98.00;;;;;;5078488;28;20068;-69
2021/09/14 00:12:23;;;;;;;10.82;6.60;;;15.20;98.00;;;;;;5077545;28;20413;-68
2021/09/14 00:14:49;;;;;;;9.40;6.55;;;15.40;98.00;;;;;;5078034;28;20025;-69
2021/09/14 00:17:15;;;;;;;8.77;6.70;;;15.50;98.00;;;;;;5078302;28;20083;-69
2021/09/14 00:19:43;;;;;;;13.13;7.07;;;15.70;98.00;;;;;;5078330;28;20052;-69
2021/09/14 00:22:09;;;;;;;9.57;6.00;;;15.80;98.00;;;;;;5077881;28;20028;-68
2021/09/14 00:24:35;;;;;;;8.57;5.78;;;16.00;98.00;;;;;;5078237;28;20478;-69
2021/09/14 00:27:00;;;;;;;8.82;6.10;;;16.00;98.00;;;;;;5077055;28;20032;-68
2021/09/14 00:29:26;;;;;;;9.98;5.80;;;16.10;98.00;;;;;;5077460;28;20478;-68
2021/09/14 00:31:54;;;;;;;9.80;6.10;;;16.30;98.00;;;;;;5077595;28;20039;-68
2021/09/14 00:34:20;;;;;;;8.95;5.88;;;16.40;98.00;;;;;;5077308;28;20362;-69
2021/09/14 00:36:45;;;;;;;10.35;6.47;;;16.50;98.00;;;;;;5077567;28;20120;-68
2021/09/14 00:39:11;;;;;;;8.82;5.85;;;16.50;98.00;;;;;;5076813;28;20017;-69
2021/09/14 00:41:37;;;;;;;10.63;6.05;;;16.60;98.00;;;;;;5075887;28;20031;-68
2021/09/14 00:44:03;;;;;;;8.80;5.78;;;16.70;98.00;;;;;;5074875;28;20028;-69
2021/09/14 00:46:29;;;;;;;8.25;5.78;;;16.70;98.00;;;;;;5080586;28;20107;-69
2021/09/14 00:48:55;;;;;;;8.93;5.40;;;16.60;98.00;;;;;;5062683;28;20103;-69
2021/09/14 00:51:21;;;;;;;9.77;5.90;;;16.50;98.00;;;;;;5077195;28;20021;-69
2021/09/14 00:53:48;;;;;;;9.93;6.40;;;16.40;98.00;;;;;;5077002;28;20021;-70
2021/09/14 00:56:17;;;;;;;9.57;5.80;;;16.30;98.00;;;;;;5076420;28;20039;-69
2021/09/14 00:58:44;;;;;;;9.30;6.30;;;16.30;98.00;;;;;;5075458;28;20086;-69
2021/09/14 01:01:10;;;;;;;10.05;6.20;;;16.30;98.00;;;;;;5076186;28;20021;-68
2021/09/14 01:03:36;;;;;;;7.95;5.38;;;16.30;98.00;;;;;;5077141;28;20021;-69
2021/09/14 01:06:03;;;;;;;9.40;5.97;;;16.40;98.00;;;;;;5059294;28;20029;-69
2021/09/14 01:08:33;;;;;;;12.20;5.95;;;16.40;98.00;;;;;;5058367;28;20048;-69
2021/09/14 01:11:01;;;;;;;10.57;6.63;;;16.50;98.00;;;;;;5067898;28;20116;-69
2021/09/14 01:13:27;;;;;;;8.48;5.35;;;16.60;97.90;;;;;;5069804;28;20027;-69
2021/09/14 01:15:52;;;;;;;11.57;6.05;;;16.50;97.90;;;;;;5076592;28;20029;-68
2021/09/14 01:18:18;;;;;;;8.65;5.70;;;16.50;98.00;;;;;;5076689;28;20431;-69
2021/09/14 01:20:44;;;;;;;8.30;5.57;;;16.50;98.00;;;;;;5076230;28;20025;-69
2021/09/14 01:23:10;;;;;;;9.18;5.70;;;16.50;98.00;;;;;;5075271;28;20032;-68
2021/09/14 01:25:35;;;;;;;9.82;6.13;;;16.50;98.00;;;;;;5076575;28;20078;-69
2021/09/14 01:28:05;;;;;;;7.82;5.00;;;16.40;98.00;;;;;;5073056;28;20028;-69
2021/09/14 01:30:32;;;;;;;9.77;5.28;;;16.40;98.00;;;;;;5075222;28;20063;-69
2021/09/14 01:32:58;;;;;;;7.63;5.22;;;16.40;98.00;;;;;;5076099;28;20036;-68
2021/09/14 01:35:30;;;;;;;8.32;5.53;;;16.50;98.00;;;;;;5075679;28;20066;-69
2021/09/14 01:37:56;;;;;;;9.00;5.25;;;16.50;97.70;;;;;;5075769;28;20055;-69
2021/09/14 01:40:21;;;;;;;8.32;5.03;;;16.40;97.90;;;;;;5075508;28;20036;-69
2021/09/14 01:42:50;;;;;;;8.02;5.63;;;16.30;98.00;;;;;;5057524;28;20084;-68
2021/09/14 01:45:16;;;;;;;7.70;5.07;;;16.20;98.00;;;;;;5075338;28;20075;-68
2021/09/14 01:47:43;;;;;;;8.45;5.47;;;16.00;98.00;;;;;;5076788;28;20028;-68
2021/09/14 01:50:11;;;;;;;7.93;5.35;;;15.90;98.00;;;;;;5075041;28;20056;-68
2021/09/14 01:52:37;;;;;;;10.20;5.70;;;15.90;98.00;;;;;;5058009;28;20029;-69
2021/09/14 01:55:11;;;;;;;8.07;5.43;;;15.80;98.00;;;;;;5074575;28;20021;-70
2021/09/14 01:57:38;;;;;;;9.38;6.10;;;15.60;98.00;;;;;;5074028;28;20035;-69
2021/09/14 02:00:13;;;;;;;9.80;6.18;;;15.40;98.00;;;;;;5075938;28;20086;-70
2021/09/14 02:59:23;;;;;;;9.30;6.32;;;13.80;98.00;;;;;;5073468;28;20031;-69
2021/09/14 03:01:49;;;;;;;11.20;6.90;;;13.70;98.00;;;;;;5073392;28;20025;-69
2021/09/14 03:04:16;;;;;;;9.60;6.53;;;13.70;97.90;;;;;;5074853;28;20057;-69
2021/09/14 03:06:41;;;;;;;9.55;6.40;;;13.70;98.00;;;;;;5075121;28;20021;-69
2021/09/14 03:09:07;;;;;;;9.00;6.32;;;13.70;98.00;;;;;;5075061;28;20036;-69
2021/09/14 03:11:33;;;;;;;10.85;7.30;;;13.60;97.90;;;;;;5075168;28;20025;-69
2021/09/14 03:13:58;;;;;;;12.10;7.15;;;13.60;98.00;;;;;;5074355;28;20028;-69
2021/09/14 03:16:24;;;;;;;13.55;6.72;;;13.60;97.60;;;;;;5073473;28;20024;-68
2021/09/14 03:18:50;;;;;;;9.98;6.97;;;13.70;97.80;;;;;;5073942;28;20028;-69
2021/09/14 03:21:17;;;;;;;13.68;6.78;;;13.70;98.00;;;;;;5075607;28;20020;-69
2021/09/14 03:23:42;;;;;;;9.50;6.72;;;13.70;98.00;;;;;;5057324;28;20333;-69
2021/09/14 03:26:08;;;;;;;9.32;6.50;;;13.70;98.00;;;;;;5074165;28;20020;-69
2021/09/14 03:28:37;;;;;;;10.10;6.82;;;13.70;98.00;;;;;;5073086;28;20413;-69
2021/09/14 03:31:04;;;;;;;9.45;6.78;;;13.60;98.00;;;;;;5056067;28;20402;-68
2021/09/14 03:33:30;;;;;;;10.15;6.28;;;13.60;97.90;;;;;;5074316;28;20100;-67
2021/09/14 03:35:56;;;;;;;9.35;6.47;;;13.70;97.90;;;;;;5074476;28;20078;-69
2021/09/14 03:38:22;;;;;;;9.77;6.70;;;13.70;97.90;;;;;;5074421;28;20025;-69
2021/09/14 03:40:47;;;;;;;9.38;6.25;;;13.70;98.00;;;;;;5073639;28;20021;-69
2021/09/14 03:43:14;;;;;;;11.20;7.15;;;13.60;98.00;;;;;;5072436;28;20325;-69
2021/09/14 03:45:46;;;;;;;10.00;6.22;;;13.70;98.00;;;;;;5074520;28;20364;-69
2021/09/14 03:48:11;;;;;;;8.40;5.97;;;13.70;98.00;;;;;;5085666;28;20103;-69
2021/09/14 03:50:37;;;;;;;9.23;6.45;;;13.70;98.00;;;;;;5078172;28;20120;-69
2021/09/14 03:53:03;;;;;;;9.80;6.13;;;13.70;98.00;;;;;;5078285;28;20395;-69
2021/09/14 03:55:29;;;;;;;10.35;6.70;;;13.70;98.00;;;;;;5078053;28;20036;-69
2021/09/14 03:57:54;;;;;;;8.52;5.50;;;13.70;98.00;;;;;;5076745;28;20298;-69
2021/09/14 04:00:20;;;;;;;8.60;5.50;;;13.70;98.00;;;;;;5076647;28;20025;-69
2021/09/14 04:02:52;;;;;;;9.75;5.78;;;13.70;98.00;;;;;;5040682;28;20410;-69
2021/09/14 04:08:49;;;;;;;9.57;6.43;;;13.80;98.00;;;;;;5078097;28;20113;-69
2021/09/14 04:10:40;;;;;;;9.07;5.60;;;13.80;98.00;;;;;;5076314;28;20029;-69
2021/09/14 04:13:06;;;;;;;9.00;5.80;;;13.80;98.00;;;;;;5058804;28;20029;-69
2021/09/14 04:15:32;;;;;;;9.43;6.18;;;13.80;98.00;;;;;;5077934;28;20033;-69
2021/09/14 04:17:58;;;;;;;9.68;5.95;;;13.70;98.00;;;;;;5077139;28;20306;-69
2021/09/14 04:20:24;;;;;;;9.82;6.28;;;13.80;98.00;;;;;;5074052;28;20028;-69
2021/09/14 04:22:53;;;;;;;9.80;6.28;;;13.80;98.00;;;;;;5077963;28;20024;-68
2021/09/14 04:25:18;;;;;;;11.80;5.18;;;13.70;98.00;;;;;;5077888;28;20337;-69
2021/09/14 04:27:46;;;;;;;7.53;5.18;;;13.70;98.00;;;;;;5075893;28;20033;-69
2021/09/14 04:30:12;;;;;;;8.10;5.75;;;13.70;98.00;;;;;;5071864;28;20406;-68
2021/09/14 04:32:38;;;;;;;9.38;5.85;;;13.70;98.00;;;;;;5077002;28;20037;-69
2021/09/14 04:35:04;;;;;;;9.35;5.82;;;13.70;98.00;;;;;;5052476;28;20474;-68
2021/09/14 04:37:30;;;;;;;8.35;6.15;;;13.80;98.00;;;;;;5077652;28;20028;-68
2021/09/14 04:39:56;;;;;;;10.13;5.60;;;13.80;98.00;;;;;;5076601;28;20035;-68
2021/09/14 04:42:22;;;;;;;10.90;6.13;;;13.90;98.00;;;;;;5075759;28;20428;-68
2021/09/14 04:44:48;;;;;;;10.15;5.55;;;14.10;98.00;;;;;;5077174;28;20099;-68
2021/09/14 04:47:13;;;;;;;7.97;5.00;;;14.20;98.00;;;;;;5076518;28;20032;-70
2021/09/14 04:49:39;;;;;;;8.25;5.00;;;14.20;98.00;;;;;;5077633;28;20421;-69
2021/09/14 04:52:06;;;;;;;8.63;4.60;;;14.70;98.00;;;;;;5072520;28;20089;-70
2021/09/14 04:54:32;;;;;;;7.72;4.75;;;15.20;98.00;;;;;;5076929;28;20033;-69
2021/09/14 04:56:58;;;;;;;6.88;4.50;;;15.50;98.00;;;;;;5076114;28;20162;-69
2021/09/14 04:59:24;;;;;;;6.50;4.10;;;15.70;97.70;;;;;;5075073;28;20107;-69
2021/09/14 05:01:52;;;;;;;8.15;4.50;;;16.00;97.30;;;;;;5077026;28;20028;-69
2021/09/14 05:04:19;;;;;;;7.85;4.82;;;16.00;97.10;;;;;;5077286;28;20104;-70
2021/09/14 05:06:44;;;;;;;8.32;5.38;;;15.80;97.40;;;;;;5075720;28;20024;-69
2021/09/14 05:09:10;;;;;;;8.50;5.57;;;15.70;97.70;;;;;;5077419;28;20032;-69
2021/09/14 05:11:36;;;;;;;11.10;6.00;;;15.40;98.00;;;;;;5077646;28;20027;-69
2021/09/14 05:14:02;;;;;;;13.15;5.57;;;15.10;98.00;;;;;;5076245;28;20021;-69
2021/09/14 05:16:30;;;;;;;8.55;5.60;;;14.90;98.00;;;;;;5077127;28;20379;-69
2021/09/14 05:18:57;;;;;;;8.50;5.22;;;14.60;98.00;;;;;;5077029;28;20048;-69
2021/09/14 05:21:23;;;;;;;12.43;5.35;;;14.40;98.00;;;;;;5062198;28;20029;-69
2021/09/14 05:23:49;;;;;;;7.18;4.75;;;14.40;98.00;;;;;;5070480;28;20019;-69
2021/09/14 05:26:14;;;;;;;7.85;5.32;;;14.40;98.00;;;;;;5077278;28;20103;-69
2021/09/14 05:28:42;;;;;;;9.35;5.95;;;14.40;98.00;;;;;;5075868;28;20031;-69
2021/09/14 05:31:11;;;;;;;12.32;5.93;;;14.30;98.00;;;;;;5077269;28;20025;-68
2021/09/14 05:33:41;;;;;;;7.30;4.93;;;14.30;98.00;;;;;;5077047;28;20035;-69
2021/09/14 05:36:07;;;;;;;7.95;5.68;;;14.20;98.00;;;;;;5050001;28;20418;-69
2021/09/14 05:38:34;;;;;;;12.05;5.88;;;14.20;98.00;;;;;;5056960;28;20421;-68
2021/09/14 05:40:59;;;;;;;10.30;6.88;;;14.20;98.00;;;;;;5057036;28;20021;-69
2021/09/14 05:43:27;;;;;;;7.78;5.38;;;14.10;98.00;;;;;;5064327;28;20012;-69
2021/09/14 05:45:54;;;;;;;10.25;5.68;;;14.20;98.00;;;;;;5074206;28;20039;-69
2021/09/14 05:48:19;;;;;;;7.32;5.03;;;14.20;98.00;;;;;;5056828;28;20406;-69
2021/09/14 05:50:45;;;;;;;7.88;5.43;;;14.20;98.00;;;;;;5039184;28;20039;-69
2021/09/14 05:53:11;;;;;;;10.82;5.72;;;14.40;98.00;;;;;;5073349;28;20056;-70
2021/09/14 05:55:38;;;;;;;8.80;5.57;;;14.70;98.00;;;;;;5076783;28;20059;-69
2021/09/14 05:58:10;;;;;;;7.40;4.97;;;14.90;98.00;;;;;;5075425;28;20032;-69
2021/09/14 06:00:36;;;;;;;9.25;5.22;;;15.20;98.00;;;;;;5076652;28;20302;-69
2021/09/14 06:03:02;;;;;;;11.25;5.15;;;15.80;98.00;;;;;;5076444;28;20364;-69
2021/09/14 06:05:28;;;;;;;9.15;5.22;;;16.40;98.00;;;;;;5076309;28;20028;-69
2021/09/14 06:07:54;;;;;;;6.95;4.38;;;16.90;97.20;;;;;;5075690;28;20109;-69
2021/09/14 06:10:20;;;;;;;8.30;5.30;;;17.40;96.00;;;;;;5058844;28;20025;-69
2021/09/14 06:12:46;;;;;;;7.68;4.90;;;17.70;95.20;;;;;;5074996;28;20055;-68
2021/09/14 06:15:12;;;;;;;7.28;4.47;;;17.90;95.10;;;;;;5076099;28;20029;-68
2021/09/14 06:17:39;;;;;;;10.30;4.70;;;17.90;94.90;;;;;;5075508;28;20378;-68
2021/09/14 06:20:06;;;;;;;7.57;4.72;;;17.80;95.40;;;;;;5075682;28;20052;-68
2021/09/14 06:22:31;;;;;;;8.05;4.53;;;17.80;95.90;;;;;;5076003;28;20029;-69
2021/09/14 06:24:57;;;;;;;9.98;4.75;;;17.70;95.90;;;;;;5075813;28;20048;-69
2021/09/14 06:27:23;;;;;;;8.35;4.57;;;17.80;95.70;;;;;;5074648;28;20063;-69
2021/09/14 06:29:48;;;;;;;7.40;4.57;;;17.90;95.50;;;;;;5076159;28;20035;-69
2021/09/14 06:32:14;;;;;;;7.05;4.90;;;18.10;95.00;;;;;;5075960;28;20032;-69
2021/09/14 06:34:40;;;;;;;8.20;4.72;;;18.30;95.00;;;;;;5075887;28;20020;-69
2021/09/14 06:37:08;;;;;;;8.00;4.88;;;18.40;94.60;;;;;;5075999;28;20029;-69
2021/09/14 06:39:34;;;;;;;7.32;5.03;;;18.60;95.10;;;;;;5075856;28;20025;-69
2021/09/14 06:41:59;;;;;;;9.70;4.20;;;18.60;94.80;;;;;;5074568;28;20020;-69
2021/09/14 06:44:25;;;;;;;7.63;4.95;;;18.50;95.10;;;;;;5076009;28;20031;-70
2021/09/14 06:46:51;;;;;;;7.10;3.92;;;18.50;95.30;;;;;;5075568;28;20033;-69
2021/09/14 06:49:17;;;;;;;6.78;4.30;;;18.60;95.10;;;;;;5075364;28;20028;-69
2021/09/14 06:51:46;;;;;;;8.85;4.82;;;18.70;94.90;;;;;;5075660;28;20074;-69
2021/09/14 06:54:12;;;;;;;7.53;4.32;;;18.80;93.70;;;;;;5075904;28;20024;-69
2021/09/14 06:56:38;;;;;;;7.50;4.50;;;19.00;93.60;;;;;;5075599;28;20115;-69
2021/09/14 06:59:03;;;;;;;6.82;4.60;;;19.20;93.20;;;;;;5074223;28;20032;-69
2021/09/14 07:01:29;;;;;;;8.15;4.88;;;19.30;92.30;;;;;;5075464;28;20035;-69
2021/09/14 07:03:56;;;;;;;6.95;4.20;;;19.50;92.30;;;;;;5075825;28;20016;-69
2021/09/14 07:06:22;;;;;;;7.32;4.50;;;19.70;92.90;;;;;;5075525;28;20020;-69
2021/09/14 07:08:48;;;;;;;7.57;4.32;;;19.80;92.00;;;;;;5075382;28;20088;-69
2021/09/14 07:11:14;;;;;;;8.82;4.82;;;19.90;93.40;;;;;;5075908;28;20424;-69
2021/09/14 07:13:41;;;;;;;8.27;4.80;;;19.90;93.00;;;;;;5074506;28;20024;-69
2021/09/14 07:16:06;;;;;;;9.52;4.78;;;20.00;93.70;;;;;;5075249;28;20024;-69
2021/09/14 07:18:32;;;;;;;6.63;4.22;;;20.20;93.80;;;;;;5075923;28;20032;-69
2021/09/14 07:20:58;;;;;;;9.95;4.55;;;20.30;91.70;;;;;;5079625;28;20020;-69
2021/09/14 07:23:27;;;;;;;7.55;4.57;;;20.40;91.60;;;;;;5079835;28;20025;-69
2021/09/14 07:25:53;;;;;;;8.40;4.70;;;20.50;91.60;;;;;;5061679;28;20384;-69
2021/09/14 07:28:18;;;;;;;7.47;4.43;;;20.60;91.80;;;;;;5077995;28;20096;-69
2021/09/14 07:30:44;;;;;;;6.40;4.45;;;20.70;90.40;;;;;;5079328;28;20071;-69
2021/09/14 07:33:10;;;;;;;7.05;4.25;;;20.90;91.90;;;;;;5079380;28;20028;-69
2021/09/14 07:35:36;;;;;;;8.90;4.57;;;21.10;89.00;;;;;;5079301;28;20337;-69
2021/09/14 07:38:02;;;;;;;8.07;4.20;;;21.30;89.30;;;;;;5078860;28;20052;-69
2021/09/14 07:40:28;;;;;;;8.43;4.45;;;21.50;90.50;;;;;;5079388;28;20063;-68
2021/09/14 07:42:55;;;;;;;7.97;4.32;;;21.70;90.90;;;;;;5078012;28;20048;-71
2021/09/14 07:45:21;;;;;;;7.93;4.22;;;22.00;90.40;;;;;;5078934;28;20041;-70
2021/09/14 07:47:47;;;;;;;6.80;4.57;;;22.20;89.70;;;;;;5078799;28;20090;-70
2021/09/14 07:50:16;;;;;;;9.23;4.35;;;22.40;89.30;;;;;;5078923;28;20032;-70
2021/09/14 07:52:41;;;;;;;8.82;4.40;;;22.40;88.90;;;;;;5079090;28;20410;-70
2021/09/14 07:55:07;;;;;;;7.38;4.78;;;22.50;89.00;;;;;;5079069;28;20112;-70
2021/09/14 07:57:33;;;;;;;6.18;3.95;;;22.50;88.30;;;;;;5076705;28;20039;-69
2021/09/14 07:59:59;;;;;;;7.90;4.50;;;22.60;89.40;;;;;;5078571;28;20074;-69
2021/09/14 08:02:25;;;;;;;10.10;5.00;;;22.60;88.20;;;;;;5078603;28;20082;-70
2021/09/14 08:04:51;;;;;;;7.43;4.90;;;22.50;88.80;;;;;;5078993;28;20078;-69
2021/09/14 08:07:18;;;;;;;7.90;4.60;;;22.60;87.30;;;;;;5060484;28;20135;-70
2021/09/14 08:09:44;;;;;;;6.10;3.83;;;22.90;87.50;;;;;;5078548;28;20108;-69
2021/09/14 08:12:10;;;;;;;9.00;3.90;;;24.10;84.70;;;;;;5077632;28;20051;-70
2021/09/14 08:14:35;;;;;;;8.38;4.07;;;25.70;79.50;;;;;;5078648;28;20119;-70
2021/09/14 08:17:02;;;;;;;6.53;4.20;;;27.40;76.00;;;;;;5078475;28;20457;-70
2021/09/14 08:19:28;;;;;;;7.03;4.30;;;28.50;73.60;;;;;;5078223;28;20048;-70
2021/09/14 08:21:54;;;;;;;10.30;4.65;;;28.80;70.80;;;;;;5078547;28;20021;-70
2021/09/14 08:24:20;;;;;;;8.95;4.35;;;29.20;71.00;;;;;;5078631;28;20126;-70
2021/09/14 08:26:46;;;;;;;6.72;4.00;;;28.90;70.80;;;;;;5077566;28;20052;-70
2021/09/14 08:29:12;;;;;;;6.40;4.05;;;28.80;70.30;;;;;;5077570;28;20118;-70
2021/09/14 08:31:38;;;;;;;10.45;4.30;;;29.10;71.00;;;;;;5078296;28;20024;-70
2021/09/14 08:34:04;;;;;;;9.43;4.05;;;29.70;69.80;;;;;;5078461;28;20028;-70
2021/09/14 08:36:30;;;;;;;9.15;4.18;;;29.90;68.40;;;;;;5077841;28;20324;-70
2021/09/14 08:38:56;;;;;;;7.43;3.97;;;30.00;68.40;;;;;;5077565;28;20388;-70
2021/09/14 08:41:22;;;;;;;8.00;4.10;;;30.60;67.50;;;;;;5078203;28;20060;-70
2021/09/14 08:43:49;;;;;;;6.97;4.00;;;31.40;65.50;;;;;;5058868;28;20017;-70
2021/09/14 08:46:16;;;;;;;6.05;3.20;;;31.30;65.00;;;;;;5077358;28;20039;-70
2021/09/14 08:48:44;;;;;;;6.75;3.92;;;31.20;66.10;;;;;;5077761;28;20067;-70
2021/09/14 08:51:10;;;;;;;7.07;3.70;;;31.60;63.90;;;;;;5077792;28;20029;-70
2021/09/14 08:53:36;;;;;;;7.65;3.65;;;31.20;64.00;;;;;;5077550;28;20036;-70
2021/09/14 08:56:04;;;;;;;7.35;3.67;;;30.80;65.60;;;;;;5077750;28;20032;-70
2021/09/14 08:58:29;;;;;;;5.70;3.20;;;31.00;64.50;;;;;;5076656;28;20031;-70
2021/09/14 09:00:55;;;;;;;7.18;3.30;;;31.50;64.40;;;;;;5077932;28;20337;-70
2021/09/14 09:03:27;;;;;;;7.82;3.42;;;31.60;62.80;;;;;;5076880;28;20572;-70
2021/09/14 09:05:53;;;;;;;6.78;3.33;;;31.20;64.40;;;;;;5077350;28;20020;-70
2021/09/14 09:08:24;;;;;;;6.93;3.40;;;31.50;62.70;;;;;;5076816;28;20041;-70
2021/09/14 09:10:59;;;;;;;6.65;4.07;;;30.90;63.40;;;;;;5077592;28;20032;-70
2021/09/14 09:13:26;;;;;;;6.93;3.10;;;31.00;63.30;;;;;;5058094;28;20417;-70
2021/09/14 09:15:54;;;;;;;5.90;3.55;;;30.60;63.40;;;;;;5076687;28;20089;-70
2021/09/14 09:18:21;;;;;;;6.15;3.58;;;30.80;64.80;;;;;;5077110;28;20402;-70
2021/09/14 09:20:48;;;;;;;5.90;3.33;;;30.80;64.40;;;;;;5076413;28;20037;-69
2021/09/14 09:23:20;;;;;;;8.25;3.75;;;30.80;63.70;;;;;;5077264;28;20100;-70
2021/09/14 09:25:45;;;;;;;6.85;3.60;;;30.20;64.10;;;;;;5076958;28;20229;-70
2021/09/14 09:28:16;;;;;;;7.70;3.65;;;30.30;65.00;;;;;;5076217;28;20025;-70
2021/09/14 09:30:57;;;;;;;6.80;3.30;;;30.40;65.30;;;;;;5076877;28;20033;-70
2021/09/14 09:33:32;;;;;;;5.45;3.45;;;30.90;63.90;;;;;;5077259;28;20029;-70
2021/09/14 09:36:06;;;;;;;7.63;3.83;;;30.80;64.10;;;;;;5076841;28;20071;-70
2021/09/14 09:38:44;;;;;;;5.93;3.22;;;30.90;63.40;;;;;;5076729;28;20477;-70
2021/09/14 09:41:15;;;;;;;5.82;3.53;;;31.00;62.10;;;;;;5076026;28;20037;-70
2021/09/14 09:43:40;;;;;;;6.03;3.05;;;31.00;63.70;;;;;;5075879;28;20287;-70
2021/09/14 09:46:10;;;;;;;6.55;3.85;;;30.90;63.30;;;;;;5076895;28;20025;-70
2021/09/14 09:48:37;;;;;;;6.65;3.55;;;30.60;62.60;;;;;;5076907;28;20028;-70
2021/09/14 09:51:06;;;;;;;6.70;3.85;;;30.30;63.60;;;;;;5076360;28;20032;-70
2021/09/14 09:53:34;;;;;;;9.40;3.55;;;30.50;65.50;;;;;;5076462;28;20028;-70
2021/09/14 09:56:02;;;;;;;6.38;3.53;;;30.40;64.70;;;;;;5072117;28;20049;-69
2021/09/14 09:58:28;;;;;;;6.32;3.22;;;29.70;64.60;;;;;;5055447;28;20056;-70
2021/09/14 10:01:07;;;;;;;5.53;3.40;;;28.70;66.80;;;;;;5073487;28;20060;-69
2021/09/14 10:03:37;;;;;;;7.82;3.70;;;28.30;67.30;;;;;;5076743;28;20424;-69
2021/09/14 10:06:10;;;;;;;7.63;3.22;;;28.70;67.80;;;;;;5076661;28;20020;-70
2021/09/14 10:08:37;;;;;;;8.38;3.75;;;28.50;68.60;;;;;;5075852;28;20049;-69
2021/09/14 10:11:03;;;;;;;7.18;3.67;;;28.90;66.70;;;;;;5075842;28;20115;-70
2021/09/14 10:13:35;;;;;;;6.57;3.58;;;29.00;67.50;;;;;;5075003;28;20127;-70
2021/09/14 10:16:04;;;;;;;7.78;3.70;;;29.00;66.10;;;;;;5058619;28;20021;-70
2021/09/14 10:18:32;;;;;;;8.20;4.10;;;28.50;66.90;;;;;;5075752;28;20040;-70
2021/09/14 10:21:04;;;;;;;7.25;3.75;;;28.40;68.10;;;;;;5075964;28;20108;-70
2021/09/14 10:23:38;;;;;;;7.43;3.95;;;27.70;68.60;;;;;;5076117;28;20032;-70
2021/09/14 10:26:06;;;;;;;;;;;27.20;69.70;;;;;;5076703;28;20020;-69
2021/09/14 10:28:49;;;;;;;7.07;3.95;;;27.70;69.50;;;;;;5057188;28;20243;-69
2021/09/14 10:31:25;;;;;;;7.13;3.70;;;28.00;68.70;;;;;;5056978;28;20075;-70
2021/09/14 10:34:05;;;;;;;5.78;3.63;;;28.60;68.80;;;;;;5076144;28;20033;-69
2021/09/14 10:36:32;;;;;;;7.05;4.38;;;29.00;66.40;;;;;;5076071;28;20103;-71
2021/09/14 10:38:58;;;;;;;6.50;4.65;;;28.60;66.50;;;;;;5075324;28;20054;-71
2021/09/14 10:41:38;;;;;;;6.57;3.78;;;28.30;68.00;;;;;;5075992;28;20024;-70
2021/09/14 10:44:07;;;;;;;7.25;4.43;;;28.00;69.10;;;;;;5074807;28;20029;-70
2021/09/14 10:46:34;;;;;;;6.50;3.10;;;28.20;69.90;;;;;;5075977;28;20024;-70
2021/09/14 10:49:00;;;;;;;8.02;4.13;;;29.00;67.10;;;;;;5069272;28;20039;-70
2021/09/14 10:51:25;;;;;;;6.55;3.25;;;29.30;65.20;;;;;;5075017;28;20021;-70
2021/09/14 10:53:59;;;;;;;7.97;3.80;;;29.60;64.30;;;;;;5075298;28;20110;-70
2021/09/14 10:56:27;;;;;;;7.03;3.28;;;30.40;63.30;;;;;;5075884;28;20028;-70
2021/09/14 10:58:53;;;;;;;7.95;3.40;;;30.80;62.00;;;;;;5074351;28;20028;-70
2021/09/14 11:01:23;;;;;;;6.68;3.38;;;31.00;64.10;;;;;;5075831;28;20021;-70
2021/09/14 11:04:02;;;;;;;7.55;3.60;;;30.90;61.80;;;;;;5075368;28;20348;-70
2021/09/14 11:06:28;;;;;;;9.18;3.80;;;30.30;61.50;;;;;;5075879;28;20325;-70
2021/09/14 11:09:23;;;;;;;7.20;3.55;;;29.30;64.10;;;;;;5075583;28;20044;-70
2021/09/14 11:11:49;;;;;;;6.75;3.20;;;29.10;64.50;;;;;;5071315;28;20047;-71
2021/09/14 11:14:15;;;;;;;7.18;3.65;;;29.00;64.60;;;;;;5075636;28;20025;-70
2021/09/14 11:16:45;;;;;;;7.10;3.10;;;29.20;65.90;;;;;;5075120;28;20314;-70
2021/09/14 11:19:13;;;;;;;7.07;3.28;;;28.80;66.20;;;;;;5075394;28;20016;-70
2021/09/14 11:21:45;;;;;;;6.25;3.13;;;28.80;66.50;;;;;;5075160;28;20027;-70
2021/09/14 11:24:11;;;;;;;6.68;3.58;;;28.50;66.10;;;;;;5075731;28;20025;-70
2021/09/14 11:26:37;;;;;;;7.22;3.58;;;28.40;66.40;;;;;;5075459;28;20052;-70
2021/09/14 11:29:03;;;;;;;8.02;3.50;;;28.20;68.10;;;;;;5074088;28;20028;-70
2021/09/14 11:31:31;;;;;;;8.35;3.35;;;28.30;66.60;;;;;;5075162;28;20032;-70
2021/09/14 11:33:57;;;;;;;8.38;3.58;;;27.90;67.50;;;;;;5075151;28;20032;-70
2021/09/14 11:36:24;;;;;;;6.97;3.63;;;28.60;67.00;;;;;;5075886;28;20306;-70
2021/09/14 11:39:04;;;;;;;6.80;3.10;;;29.30;65.10;;;;;;5075453;28;20463;-70
2021/09/14 11:41:38;;;;;;;5.68;2.97;;;29.20;66.00;;;;;;5075016;28;20082;-69
2021/09/14 11:44:05;;;;;;;7.05;3.78;;;28.50;67.20;;;;;;5073925;28;20433;-70
2021/09/14 11:46:31;;;;;;;6.07;3.38;;;28.70;66.60;;;;;;5075198;28;20040;-70
2021/09/14 11:49:03;;;;;;;4.97;3.10;;;28.60;66.50;;;;;;5075711;28;20032;-70
2021/09/14 11:51:38;;;;;;;5.95;3.45;;;28.60;65.80;;;;;;5075308;28;20045;-70
2021/09/14 11:54:07;;;;;;;6.43;3.63;;;28.60;66.90;;;;;;5074970;28;20082;-70
2021/09/14 11:56:33;;;;;;;8.20;3.88;;;28.80;66.80;;;;;;5057417;28;20032;-70
2021/09/14 11:58:58;;;;;;;5.32;3.40;;;28.80;65.00;;;;;;5074139;28;20020;-70
2021/09/14 12:01:31;;;;;;;5.95;3.45;;;28.80;66.60;;;;;;5074149;28;20048;-69
2021/09/14 12:03:56;;;;;;;5.57;3.40;;;29.10;67.50;;;;;;5075210;28;20063;-70
2021/09/14 12:06:30;;;;;;;5.85;3.60;;;29.90;64.70;;;;;;5078541;28;20048;-70
2021/09/14 12:08:58;;;;;;;9.15;3.30;;;30.40;62.90;;;;;;5078674;28;20057;-70
2021/09/14 12:11:32;;;;;;;7.93;3.92;;;30.00;63.10;;;;;;5078091;28;20055;-70
2021/09/14 12:14:00;;;;;;;8.57;3.55;;;29.30;63.60;;;;;;5077349;28;20104;-70
2021/09/14 12:16:32;;;;;;;7.07;3.47;;;28.90;65.00;;;;;;5078808;28;20347;-70
2021/09/14 12:18:58;;;;;;;7.93;3.55;;;28.90;65.00;;;;;;5078616;28;20040;-69
2021/09/14 12:21:26;;;;;;;5.55;3.60;;;29.00;65.70;;;;;;5078032;28;20020;-70
2021/09/14 12:23:52;;;;;;;5.38;3.10;;;29.30;64.40;;;;;;5078308;28;20025;-70
2021/09/14 12:26:25;;;;;;;8.50;3.22;;;29.90;64.70;;;;;;5078613;28;20424;-70
2021/09/14 12:28:55;;;;;;;;;;;30.60;62.60;;;;;;5077731;28;20037;-70
2021/09/14 12:31:21;;;;;;;5.88;3.35;;;31.30;61.10;;;;;;5077657;28;19915;-70
2021/09/14 12:33:47;;;;;;;13.32;3.55;;;31.40;61.70;;;;;;5077647;28;20036;-70
2021/09/14 12:36:14;;;;;;;7.45;3.30;;;31.30;59.80;;;;;;5078330;28;20081;-70
2021/09/14 12:38:43;;;;;;;6.72;3.30;;;30.90;61.30;;;;;;5077847;28;20071;-70
2021/09/14 12:41:09;;;;;;;6.13;3.58;;;31.10;61.70;;;;;;5078240;28;20017;-70
2021/09/14 12:43:38;;;;;;;7.20;3.55;;;30.90;62.30;;;;;;5076724;28;20024;-70
2021/09/14 12:46:04;;;;;;;5.50;3.50;;;30.50;61.80;;;;;;5078098;28;20025;-70
2021/09/14 12:48:29;;;;;;;7.88;4.10;;;30.30;64.20;;;;;;5077979;28;20036;-70
2021/09/14 12:50:56;;;;;;;5.35;3.28;;;30.30;62.80;;;;;;5078331;28;20021;-70
2021/09/14 12:53:21;;;;;;;7.85;3.80;;;29.60;64.10;;;;;;5077606;28;20036;-70
2021/09/14 12:55:48;;;;;;;6.15;3.65;;;29.10;66.40;;;;;;5077968;28;20024;-70
2021/09/14 12:58:13;;;;;;;9.40;5.35;;;28.70;67.50;;;;;;5076244;28;20107;-70
2021/09/14 13:00:39;;;;;;;10.65;5.07;;;28.50;67.30;;;;;;5077574;28;20170;-70
2021/09/14 13:03:05;;;;;;;6.82;4.00;;;28.20;67.00;;;;;;5077819;28;20025;-70
2021/09/14 13:05:32;;;;;;;7.93;4.10;;;28.10;67.90;;;;;;5077683;28;20032;-70
2021/09/14 13:07:58;;;;;;;7.72;4.00;;;28.30;68.60;;;;;;5077152;28;20041;-70
2021/09/14 13:10:24;;;;;;;6.90;3.88;;;28.70;67.40;;;;;;5077339;28;20030;-70
2021/09/14 13:16:10;;;;;;;7.70;3.90;;;29.00;67.60;;;;;;5074793;28;20047;-70
2021/09/14 13:18:22;;;;;;;8.80;4.00;;;28.70;67.70;;;;;;5059580;28;20064;-70
2021/09/14 13:20:48;;;;;;;6.70;3.60;;;28.60;69.10;;;;;;5056719;28;20052;-70
2021/09/14 13:23:13;;;;;;;7.38;3.40;;;28.80;68.30;;;;;;5059255;28;20020;-70
2021/09/14 13:25:40;;;;;;;6.10;3.78;;;29.00;65.30;;;;;;5064945;28;20074;-70
2021/09/14 13:28:09;;;;;;;6.25;3.60;;;29.30;66.90;;;;;;5058979;28;20047;-70
2021/09/14 13:30:34;;;;;;;7.30;3.80;;;29.00;65.90;;;;;;5066757;28;20028;-71
2021/09/14 13:33:00;;;;;;;7.65;3.70;;;28.20;67.70;;;;;;5073756;28;20035;-71
2021/09/14 13:35:26;;;;;;;6.82;4.35;;;28.00;67.60;;;;;;5061746;28;20035;-71
2021/09/14 13:37:52;;;;;;;9.32;4.80;;;27.60;68.60;;;;;;5074573;28;20031;-70
2021/09/14 13:40:18;;;;;;;9.13;3.90;;;27.30;70.50;;;;;;5071690;28;20104;-69
2021/09/14 13:42:44;;;;;;;7.55;4.68;;;27.70;69.00;;;;;;5059328;28;20489;-69
2021/09/14 13:47:54;;;;;;;5.72;3.40;;;28.40;67.50;;;;;;5075942;28;20051;-69
2021/09/14 13:50:20;;;;;;;8.13;4.10;;;28.90;66.70;;;;;;5076649;28;20070;-69